Time;durP1;ratioP1;P1;durP2;ratioP2;P2;SDS_P1;SDS_P2;PMS_P1;PMS_P2;Temp;Humidity;BMP_temperature;BMP_pressure;BME280_temperature;BME280_humidity;BME280_pressure;Samples;Min_cycle;Max_cycle;Signal;HPM_P1;HPM_P2
2023/08/20 00:01:54;;;;;;;;;;;;;;;30.39;48.12;100185.72;4484526;32;34179;-77
2023/08/20 00:04:22;;;;;;;;;;;;;;;30.43;47.82;100181.16;4484763;32;33824;-77
2023/08/20 00:06:49;;;;;;;;;;;;;;;30.42;47.99;100177.59;4476431;32;34865;-77
2023/08/20 00:09:16;;;;;;;;;;;;;;;30.16;48.41;100181.03;4484008;32;35074;-77
2023/08/20 00:11:44;;;;;;;;;;;;;;;29.81;49.39;100182.94;4483376;32;34145;-77
2023/08/20 00:14:17;;;;;;;;;;;;;;;29.64;49.82;100182.50;4484177;32;34893;-77
2023/08/20 00:16:45;;;;;;;;;;;;;;;30.24;48.29;100189.69;4484597;32;34305;-76
2023/08/20 00:19:12;;;;;;;;;;;;;;;30.04;48.79;100178.72;4484558;32;34833;-78
2023/08/20 00:21:44;;;;;;;;;;;;;;;30.18;48.30;100179.19;4483164;32;34425;-78
2023/08/20 00:24:12;;;;;;;;;;;;;;;30.40;47.93;100178.56;4473417;32;34995;-76
2023/08/20 00:26:39;;;;;;;;;;;;;;;30.19;48.35;100178.25;4482717;32;34304;-78
2023/08/20 00:29:06;;;;;;;;;;;;;;;30.19;48.60;100176.47;4470907;32;33506;-78
2023/08/20 00:31:35;;;;;;;;;;;;;;;30.15;48.64;100181.94;4484177;32;33484;-78
2023/08/20 00:34:02;;;;;;;;;;;;;;;30.15;48.75;100171.25;4484102;32;33961;-78
2023/08/20 00:36:35;;;;;;;;;;;;;;;30.09;48.94;100174.12;4475575;32;34955;-77
2023/08/20 00:39:03;;;;;;;;;;;;;;;29.88;49.40;100170.28;4484214;32;34060;-77
2023/08/20 00:41:30;;;;;;;;;;;;;;;29.79;49.67;100166.09;4483882;32;34058;-78
2023/08/20 00:43:58;;;;;;;;;;;;;;;30.35;48.17;100163.56;4483696;32;34199;-78
2023/08/20 00:46:25;;;;;;;;;;;;;;;30.18;48.49;100168.50;4483187;32;33869;-78
2023/08/20 00:48:52;;;;;;;;;;;;;;;30.07;48.72;100175.97;4459725;32;34057;-78
2023/08/20 00:51:20;;;;;;;;;;;;;;;30.11;48.65;100172.28;4461460;32;34064;-78
2023/08/20 00:53:48;;;;;;;;;;;;;;;30.19;48.45;100165.78;4481830;32;33901;-78
2023/08/20 00:56:15;;;;;;;;;;;;;;;30.25;48.34;100167.41;4463669;32;35044;-77
2023/08/20 00:58:42;;;;;;;;;;;;;;;30.23;48.29;100166.56;4461934;32;35094;-78
2023/08/20 01:01:10;;;;;;;;;;;;;;;30.33;48.05;100172.56;4469516;32;33402;-77
2023/08/20 01:03:37;;;;;;;;;;;;;;;29.85;49.15;100168.59;4478292;32;33767;-77
2023/08/20 01:06:19;;;;;;;;;;;;;;;29.97;49.12;100172.69;4478021;32;33999;-78
2023/08/20 01:08:51;;;;;;;;;;;;;;;29.68;49.80;100184.16;4467280;32;33970;-78
2023/08/20 01:11:39;;;;;;;;;;;;;;;29.80;49.56;100170.50;4462340;32;33273;-77
2023/08/20 01:14:16;;;;;;;;;;;;;;;29.93;49.17;100177.25;4462145;32;34589;-76
2023/08/20 01:16:44;;;;;;;;;;;;;;;30.03;48.94;100171.63;4468651;32;33490;-77
2023/08/20 01:19:14;;;;;;;;;;;;;;;30.35;47.96;100176.91;4478873;32;33934;-77
2023/08/20 01:21:46;;;;;;;;;;;;;;;29.78;49.13;100185.69;4482100;32;33474;-78
2023/08/20 01:24:22;;;;;;;;;;;;;;;29.76;49.23;100182.19;4461152;32;34207;-77
2023/08/20 01:27:01;;;;;;;;;;;;;;;30.09;48.63;100184.81;4456240;32;33507;-78
2023/08/20 01:29:28;;;;;;;;;;;;;;;29.71;49.54;100184.97;4479955;32;34072;-78
2023/08/20 01:31:56;;;;;;;;;;;;;;;29.73;49.45;100182.28;4483382;32;33227;-76
2023/08/20 01:34:23;;;;;;;;;;;;;;;29.87;49.06;100182.75;4470204;32;34729;-76
2023/08/20 01:36:51;;;;;;;;;;;;;;;30.01;48.78;100186.84;4484817;32;34190;-76
2023/08/20 01:39:18;;;;;;;;;;;;;;;30.00;48.92;100188.63;4485597;32;34093;-77
2023/08/20 01:41:45;;;;;;;;;;;;;;;30.15;48.36;100195.31;4484572;32;33035;-77
2023/08/20 01:44:13;;;;;;;;;;;;;;;30.14;48.37;100188.22;4485467;32;34903;-77
2023/08/20 01:46:41;;;;;;;;;;;;;;;30.23;48.06;100185.28;4484370;32;34476;-78
2023/08/20 01:49:09;;;;;;;;;;;;;;;30.06;48.34;100182.25;4485492;32;35212;-77
2023/08/20 01:51:37;;;;;;;;;;;;;;;29.91;48.74;100184.41;4485202;32;32887;-76
2023/08/20 01:54:04;;;;;;;;;;;;;;;29.88;48.93;100187.19;4464783;32;35062;-77
2023/08/20 01:56:31;;;;;;;;;;;;;;;29.86;49.07;100181.00;4483416;32;34129;-77
2023/08/20 01:58:59;;;;;;;;;;;;;;;29.75;49.18;100196.47;4484751;32;34907;-78
2023/08/20 02:01:26;;;;;;;;;;;;;;;29.38;50.13;100186.75;4482613;32;32994;-77
2023/08/20 02:03:54;;;;;;;;;;;;;;;29.85;49.15;100192.63;4485104;32;34984;-77
2023/08/20 02:06:21;;;;;;;;;;;;;;;29.66;49.43;100194.03;4485015;32;34987;-77
2023/08/20 02:08:49;;;;;;;;;;;;;;;29.62;49.56;100189.69;4485178;32;33994;-78
2023/08/20 02:11:17;;;;;;;;;;;;;;;29.71;49.40;100186.75;4485044;32;32847;-77
2023/08/20 02:13:44;;;;;;;;;;;;;;;29.87;48.89;100180.09;4482478;32;34170;-77
2023/08/20 02:16:12;;;;;;;;;;;;;;;29.89;48.77;100183.59;4485185;32;33992;-77
2023/08/20 02:18:39;;;;;;;;;;;;;;;29.98;48.39;100183.34;4484693;32;34132;-78
2023/08/20 02:21:06;;;;;;;;;;;;;;;29.98;48.43;100178.00;4471695;32;33326;-77
2023/08/20 02:23:34;;;;;;;;;;;;;;;29.97;48.43;100178.03;4481558;32;34789;-77
2023/08/20 02:26:02;;;;;;;;;;;;;;;29.84;48.73;100177.50;4477812;32;34353;-76
2023/08/20 02:28:29;;;;;;;;;;;;;;;29.65;49.35;100178.91;4485043;32;34687;-77
2023/08/20 02:30:57;;;;;;;;;;;;;;;29.18;50.55;100172.13;4479679;32;34713;-78
2023/08/20 02:33:25;;;;;;;;;;;;;;;29.26;50.47;100176.41;4472191;32;34970;-77
2023/08/20 02:35:52;;;;;;;;;;;;;;;29.17;50.80;100182.87;4472097;32;33746;-78
2023/08/20 02:38:21;;;;;;;;;;;;;;;29.18;50.71;100185.47;4476725;32;33242;-78
2023/08/20 02:40:49;;;;;;;;;;;;;;;29.48;49.92;100182.06;4479223;32;33336;-77
2023/08/20 02:43:16;;;;;;;;;;;;;;;29.55;49.60;100178.28;4482193;32;33842;-77
2023/08/20 02:45:43;;;;;;;;;;;;;;;29.52;49.69;100173.06;4484454;32;34035;-77
2023/08/20 02:48:11;;;;;;;;;;;;;;;29.65;49.30;100179.81;4484790;32;34230;-78
2023/08/20 02:50:38;;;;;;;;;;;;;;;29.32;50.10;100174.47;4455891;32;31660;-77
2023/08/20 02:53:06;;;;;;;;;;;;;;;29.14;50.63;100178.47;4479652;32;34966;-77
2023/08/20 02:55:35;;;;;;;;;;;;;;;29.19;50.42;100176.56;4484509;32;34205;-78
2023/08/20 02:58:09;;;;;;;;;;;;;;;29.31;50.29;100174.50;4479714;32;34751;-77
2023/08/20 03:00:36;;;;;;;;;;;;;;;29.18;50.64;100169.47;4477376;32;33101;-79
2023/08/20 03:03:07;;;;;;;;;;;;;;;29.16;50.75;100178.44;4480539;32;33761;-76
2023/08/20 03:05:34;;;;;;;;;;;;;;;29.24;50.39;100178.25;4485501;32;34757;-78
2023/08/20 03:08:03;;;;;;;;;;;;;;;29.40;49.90;100177.81;4484997;32;33823;-77
2023/08/20 03:10:34;;;;;;;;;;;;;;;29.54;49.26;100180.09;4463735;32;33279;-78
2023/08/20 03:13:01;;;;;;;;;;;;;;;29.86;48.34;100172.97;4480304;32;33807;-78
2023/08/20 03:15:29;;;;;;;;;;;;;;;30.00;47.87;100175.28;4485071;32;34322;-78
2023/08/20 03:17:56;;;;;;;;;;;;;;;29.92;47.99;100178.19;4485125;32;33955;-78
2023/08/20 03:20:24;;;;;;;;;;;;;;;29.91;47.99;100176.41;4485272;32;32900;-78
2023/08/20 03:22:51;;;;;;;;;;;;;;;29.85;48.12;100173.94;4484424;32;34874;-78
2023/08/20 03:25:19;;;;;;;;;;;;;;;29.70;48.58;100177.88;4472101;32;33833;-78
2023/08/20 03:27:46;;;;;;;;;;;;;;;29.64;48.80;100185.19;4484510;32;34824;-79
2023/08/20 03:30:13;;;;;;;;;;;;;;;29.73;48.51;100182.28;4484795;32;34984;-78
2023/08/20 03:32:42;;;;;;;;;;;;;;;29.12;49.98;100188.31;4484416;32;34679;-78
2023/08/20 03:35:09;;;;;;;;;;;;;;;29.28;49.76;100190.56;4483576;32;34004;-78
2023/08/20 03:37:37;;;;;;;;;;;;;;;29.13;49.98;100192.75;4478341;32;33760;-78
2023/08/20 03:40:04;;;;;;;;;;;;;;;29.21;49.68;100193.41;4484391;32;33564;-77
2023/08/20 03:42:32;;;;;;;;;;;;;;;29.30;49.47;100194.09;4479415;32;32561;-77
2023/08/20 03:44:59;;;;;;;;;;;;;;;29.34;49.42;100201.09;4485153;32;33958;-77
2023/08/20 03:47:28;;;;;;;;;;;;;;;29.29;49.52;100203.03;4482364;32;34008;-77
2023/08/20 03:49:55;;;;;;;;;;;;;;;29.40;49.19;100200.94;4479413;32;33455;-77
2023/08/20 03:52:22;;;;;;;;;;;;;;;29.51;48.73;100204.19;4483480;32;34169;-78
2023/08/20 03:54:50;;;;;;;;;;;;;;;29.38;49.21;100209.00;4484183;32;34392;-77
2023/08/20 03:57:18;;;;;;;;;;;;;;;29.18;49.64;100212.16;4483383;32;34817;-77
2023/08/20 03:59:45;;;;;;;;;;;;;;;29.19;49.70;100213.91;4484726;32;33238;-78
2023/08/20 04:02:13;;;;;;;;;;;;;;;29.21;49.73;100212.09;4479219;32;33930;-78
2023/08/20 04:04:41;;;;;;;;;;;;;;;29.30;49.53;100212.75;4479425;32;33999;-78
2023/08/20 04:07:08;;;;;;;;;;;;;;;29.12;50.11;100216.75;4484643;32;34503;-77
2023/08/20 04:09:36;;;;;;;;;;;;;;;28.95;50.55;100214.47;4484472;32;33343;-78
2023/08/20 04:12:04;;;;;;;;;;;;;;;29.25;49.84;100215.56;4483957;32;34005;-78
2023/08/20 04:14:31;;;;;;;;;;;;;;;29.44;49.16;100223.06;4484613;32;34245;-77
2023/08/20 04:16:58;;;;;;;;;;;;;;;29.72;48.46;100231.22;4484293;32;34351;-78
2023/08/20 04:19:26;;;;;;;;;;;;;;;29.76;48.30;100224.91;4484340;32;33597;-78
2023/08/20 04:21:53;;;;;;;;;;;;;;;29.76;48.25;100222.25;4481964;32;34758;-78
2023/08/20 04:24:20;;;;;;;;;;;;;;;29.46;48.94;100222.12;4484363;32;34267;-78
2023/08/20 04:26:48;;;;;;;;;;;;;;;29.47;49.16;100223.87;4483889;32;35020;-78
2023/08/20 04:29:17;;;;;;;;;;;;;;;29.40;49.42;100225.84;4479927;32;33798;-77
2023/08/20 04:31:44;;;;;;;;;;;;;;;29.21;49.81;100230.75;4484646;32;34816;-78
2023/08/20 04:34:12;;;;;;;;;;;;;;;29.08;50.17;100226.59;4482233;32;33334;-77
2023/08/20 04:36:39;;;;;;;;;;;;;;;29.51;49.25;100230.87;4483918;32;34285;-77
2023/08/20 04:39:06;;;;;;;;;;;;;;;29.40;49.42;100233.84;4477750;32;33113;-78
2023/08/20 04:41:34;;;;;;;;;;;;;;;29.17;50.08;100237.09;4482897;32;34123;-78
2023/08/20 04:44:02;;;;;;;;;;;;;;;29.02;50.56;100232.09;4481850;32;34003;-77
2023/08/20 04:46:29;;;;;;;;;;;;;;;29.34;49.82;100233.09;4473742;32;33862;-77
2023/08/20 04:48:57;;;;;;;;;;;;;;;29.80;48.42;100231.91;4478597;32;33086;-78
2023/08/20 04:51:25;;;;;;;;;;;;;;;29.82;48.40;100235.41;4464622;32;34174;-77
2023/08/20 04:53:52;;;;;;;;;;;;;;;29.33;49.70;100237.56;4478629;32;34698;-78
2023/08/20 04:56:19;;;;;;;;;;;;;;;29.69;48.95;100240.19;4479278;32;34734;-78
2023/08/20 04:58:47;;;;;;;;;;;;;;;29.76;48.70;100240.94;4481994;32;32764;-78
2023/08/20 05:01:18;;;;;;;;;;;;;;;29.62;49.09;100237.75;4482336;32;34337;-78
2023/08/20 05:03:46;;;;;;;;;;;;;;;29.55;49.14;100242.34;4479478;32;33923;-77
2023/08/20 05:06:14;;;;;;;;;;;;;;;29.92;48.34;100242.28;4482378;32;34223;-78
2023/08/20 05:08:42;;;;;;;;;;;;;;;29.88;48.47;100245.94;4477582;32;34355;-79
2023/08/20 05:11:09;;;;;;;;;;;;;;;29.78;48.76;100245.31;4481150;32;34335;-78
2023/08/20 05:13:37;;;;;;;;;;;;;;;29.67;49.16;100243.81;4480038;32;33748;-77
2023/08/20 05:16:04;;;;;;;;;;;;;;;29.75;49.17;100245.41;4478922;32;34283;-77
2023/08/20 05:18:31;;;;;;;;;;;;;;;29.91;48.88;100251.19;4482553;32;33607;-78
2023/08/20 05:20:59;;;;;;;;;;;;;;;29.92;49.10;100255.62;4485969;32;33969;-77
2023/08/20 05:23:28;;;;;;;;;;;;;;;29.85;49.44;100246.03;4484270;32;34720;-79
2023/08/20 05:25:56;;;;;;;;;;;;;;;29.29;51.09;100245.72;4474599;32;34729;-78
2023/08/20 05:28:23;;;;;;;;;;;;;;;29.55;50.56;100245.00;4486054;32;33411;-77
2023/08/20 05:30:54;;;;;;;;;;;;;;;29.63;50.53;100245.69;4480669;32;33933;-77
2023/08/20 05:33:23;;;;;;;;;;;;;;;29.75;50.22;100244.53;4483041;32;34786;-78
2023/08/20 05:35:50;;;;;;;;;;;;;;;29.55;50.76;100247.69;4470587;32;34233;-77
2023/08/20 05:38:18;;;;;;;;;;;;;;;29.86;50.13;100247.75;4465156;32;33930;-78
2023/08/20 05:40:45;;;;;;;;;;;;;;;29.75;50.59;100249.88;4477388;32;32760;-77
2023/08/20 05:43:13;;;;;;;;;;;;;;;30.03;50.04;100249.09;4463935;32;34201;-76
2023/08/20 05:45:40;;;;;;;;;;;;;;;30.23;49.58;100245.84;4483828;32;34275;-79
2023/08/20 05:48:08;;;;;;;;;;;;;;;30.02;50.20;100250.00;4476642;32;32940;-77
2023/08/20 05:50:35;;;;;;;;;;;;;;;30.18;49.81;100249.53;4469265;32;34066;-78
2023/08/20 05:53:02;;;;;;;;;;;;;;;30.38;49.17;100250.75;4481169;32;33869;-77
2023/08/20 05:55:30;;;;;;;;;;;;;;;30.13;49.03;100255.91;4474060;32;34459;-78
2023/08/20 05:57:57;;;;;;;;;;;;;;;30.38;48.38;100251.66;4478208;32;34209;-77
2023/08/20 06:00:24;;;;;;;;;;;;;;;30.61;47.78;100258.09;4477129;31;34785;-77
2023/08/20 06:02:52;;;;;;;;;;;;;;;30.37;48.45;100260.59;4477647;32;33996;-78
2023/08/20 06:05:20;;;;;;;;;;;;;;;30.54;48.11;100259.22;4478143;32;33742;-76
2023/08/20 06:07:47;;;;;;;;;;;;;;;30.69;47.87;100266.75;4462183;32;32603;-77
2023/08/20 06:10:15;;;;;;;;;;;;;;;31.04;46.80;100271.94;4475584;32;35075;-76
2023/08/20 06:12:42;;;;;;;;;;;;;;;30.77;47.53;100274.53;4478266;32;34160;-77
2023/08/20 06:15:09;;;;;;;;;;;;;;;31.27;46.62;100273.88;4484323;32;33626;-77
2023/08/20 06:17:37;;;;;;;;;;;;;;;31.61;45.90;100275.44;4483942;32;32702;-76
2023/08/20 06:20:07;;;;;;;;;;;;;;;31.62;46.16;100277.19;4484449;32;34181;-77
2023/08/20 06:22:34;;;;;;;;;;;;;;;32.06;45.08;100269.41;4480924;31;35023;-76
2023/08/20 06:25:03;;;;;;;;;;;;;;;31.92;45.44;100278.78;4480201;32;33710;-76
2023/08/20 06:27:30;;;;;;;;;;;;;;;32.05;45.28;100267.66;4482595;32;34036;-77
2023/08/20 06:29:57;;;;;;;;;;;;;;;32.18;45.22;100274.31;4484012;32;34095;-78
2023/08/20 06:32:25;;;;;;;;;;;;;;;32.15;45.42;100274.41;4483826;32;34988;-77
2023/08/20 06:34:52;;;;;;;;;;;;;;;32.35;44.67;100273.66;4481617;32;34018;-78
2023/08/20 06:37:19;;;;;;;;;;;;;;;32.16;45.16;100270.78;4481321;32;34170;-77
2023/08/20 06:39:47;;;;;;;;;;;;;;;32.32;44.92;100271.13;4485588;32;33531;-77
2023/08/20 06:42:14;;;;;;;;;;;;;;;32.41;44.02;100269.88;4483877;32;34318;-77
2023/08/20 06:44:42;;;;;;;;;;;;;;;32.51;44.17;100269.47;4484778;32;34777;-76
2023/08/20 06:47:09;;;;;;;;;;;;;;;32.53;44.47;100275.66;4484695;32;33481;-76
2023/08/20 06:49:36;;;;;;;;;;;;;;;32.64;44.54;100272.56;4483847;32;34863;-78
2023/08/20 06:52:04;;;;;;;;;;;;;;;32.58;44.78;100272.81;4482664;32;33757;-77
2023/08/20 06:54:31;;;;;;;;;;;;;;;32.58;45.12;100267.44;4485085;32;34476;-77
2023/08/20 06:56:59;;;;;;;;;;;;;;;32.94;44.35;100269.62;4476518;32;33449;-78
2023/08/20 06:59:27;;;;;;;;;;;;;;;33.03;44.13;100263.87;4478843;32;33729;-78
2023/08/20 07:01:54;;;;;;;;;;;;;;;32.96;44.50;100270.44;4484696;32;34314;-78
2023/08/20 07:04:22;;;;;;;;;;;;;;;32.59;45.75;100271.91;4481720;32;33789;-77
2023/08/20 07:06:49;;;;;;;;;;;;;;;32.90;44.74;100273.38;4480850;32;33132;-77
2023/08/20 07:09:16;;;;;;;;;;;;;;;33.07;44.28;100276.25;4476523;31;35084;-76
2023/08/20 07:11:43;;;;;;;;;;;;;;;32.94;44.60;100274.13;4477982;32;33401;-78
2023/08/20 07:14:14;;;;;;;;;;;;;;;33.21;44.37;100273.00;4479015;32;34789;-76
2023/08/20 07:16:42;;;;;;;;;;;;;;;33.43;44.19;100277.47;4484114;32;32795;-77
2023/08/20 07:19:09;;;;;;;;;;;;;;;33.56;44.34;100277.84;4481598;32;34819;-77
2023/08/20 07:21:36;;;;;;;7.60;6.45;;;;;;;34.10;43.08;100281.75;4482927;32;35030;-76
2023/08/20 07:24:04;;;;;;;13.65;6.82;;;;;;;34.03;43.32;100282.94;4469686;32;33649;-77
2023/08/20 07:26:32;;;;;;;8.13;6.60;;;;;;;34.31;42.99;100287.09;4480798;32;32332;-77
2023/08/20 07:28:59;;;;;;;8.45;7.55;;;;;;;34.37;42.62;100274.25;4476500;32;33868;-76
2023/08/20 07:31:32;;;;;;;9.95;7.45;;;;;;;34.26;43.15;100284.63;4482265;32;34056;-77
2023/08/20 07:34:00;;;;;;;;;;;;;;;34.37;43.66;100281.47;4484574;32;34207;-77
2023/08/20 07:36:30;;;;;;;;;;;;;;;34.63;43.32;100281.06;4484968;32;33635;-77
2023/08/20 07:38:58;;;;;;;;;;;;;;;34.61;43.07;100280.28;4484895;32;34477;-77
2023/08/20 07:41:28;;;;;;;;;;;;;;;34.93;42.46;100277.03;4458945;32;34029;-78
2023/08/20 07:43:56;;;;;;;;;;;;;;;35.30;41.63;100286.88;4473255;32;32902;-78
2023/08/20 07:46:23;;;;;;;;;;;;;;;35.60;41.09;100289.84;4475267;32;32540;-77
2023/08/20 07:48:50;;;;;;;;;;;;;;;35.85;40.38;100290.41;4475937;32;33604;-77
2023/08/20 07:51:17;;;;;;;;;;;;;;;36.02;40.14;100288.53;4484476;32;33924;-76
2023/08/20 07:53:45;;;;;;;7.93;6.78;;;;;;;35.98;39.73;100286.09;4478351;32;34009;-76
2023/08/20 07:56:12;;;;;;;9.50;7.03;;;;;;;35.98;39.66;100286.09;4472187;32;33527;-77
2023/08/20 07:58:40;;;;;;;;;;;;;;;35.76;40.21;100281.84;4475189;32;33966;-78
2023/08/20 08:01:07;;;;;;;;;;;;;;;36.11;39.05;100281.81;4481557;32;34171;-77
2023/08/20 08:03:35;;;;;;;;;;;;;;;35.95;39.66;100284.47;4479802;32;34798;-76
2023/08/20 08:06:02;;;;;;;;;;;;;;;35.76;40.04;100286.38;4475260;32;32076;-77
2023/08/20 08:08:30;;;;;;;;;;;;;;;36.25;39.23;100288.31;4472304;32;34749;-76
2023/08/20 08:10:57;;;;;;;;;;;;;;;36.46;39.16;100283.56;4473003;32;34829;-76
2023/08/20 08:13:25;;;;;;;;;;;;;;;36.38;39.11;100286.69;4472883;32;34130;-76
2023/08/20 08:15:52;;;;;;;;;;;;;;;36.65;38.03;100286.16;4478791;32;33224;-77
2023/08/20 08:18:20;;;;;;;7.28;6.05;;;;;;;36.79;37.94;100283.53;4469378;31;34120;-78
2023/08/20 08:20:49;;;;;;;11.23;6.50;;;;;;;36.48;37.85;100282.50;4478545;32;33823;-75
2023/08/20 08:23:16;;;;;;;7.55;6.37;;;;;;;36.54;37.99;100284.00;4481922;32;34163;-77
2023/08/20 08:25:44;;;;;;;9.18;7.05;;;;;;;36.87;36.89;100288.50;4484318;32;33922;-77
2023/08/20 08:28:11;;;;;;;7.70;6.20;;;;;;;36.97;37.61;100281.59;4484195;32;34514;-76
2023/08/20 08:30:40;;;;;;;9.82;7.40;;;;;;;37.08;37.06;100283.69;4483986;32;33945;-76
2023/08/20 08:33:08;;;;;;;7.43;5.97;;;;;;;37.37;36.14;100282.84;4483296;32;34600;-77
2023/08/20 08:35:35;;;;;;;8.32;6.78;;;;;;;36.88;36.94;100283.00;4480843;32;33283;-77
2023/08/20 08:38:04;;;;;;;9.45;6.65;;;;;;;37.18;36.28;100284.91;4483309;32;33712;-76
2023/08/20 08:40:33;;;;;;;10.00;6.87;;;;;;;37.22;36.80;100286.47;4472356;32;32181;-76
2023/08/20 08:43:01;;;;;;;10.18;7.00;;;;;;;37.84;35.39;100290.94;4479189;32;33621;-78
2023/08/20 08:45:29;;;;;;;7.25;6.47;;;;;;;37.57;36.24;100280.78;4458927;32;33513;-77
2023/08/20 08:48:02;;;;;;;7.87;7.07;;;;;;;37.97;35.18;100283.81;4485519;32;34415;-77
2023/08/20 08:50:31;;;;;;;7.10;6.03;;;;;;;38.18;34.04;100291.59;4485594;32;33963;-77
2023/08/20 08:52:59;;;;;;;;;;;;;;;38.16;34.49;100284.44;4485690;32;33651;-78
2023/08/20 08:55:26;;;;;;;8.27;6.70;;;;;;;38.29;34.07;100289.09;4485671;32;34068;-75
2023/08/20 08:57:54;;;;;;;8.80;6.75;;;;;;;38.18;33.59;100291.59;4485250;32;34259;-77
2023/08/20 09:00:21;;;;;;;7.15;5.78;;;;;;;37.99;34.42;100276.47;4485215;32;34685;-78
2023/08/20 09:02:49;;;;;;;8.27;6.20;;;;;;;38.22;33.73;100290.44;4484952;32;33790;-77
2023/08/20 09:05:17;;;;;;;8.35;6.18;;;;;;;38.44;33.03;100287.22;4485695;32;34228;-77
2023/08/20 09:07:44;;;;;;;8.57;6.30;;;;;;;39.04;31.82;100281.56;4470321;32;33843;-77
2023/08/20 09:10:12;;;;;;;8.45;5.87;;;;;;;39.20;32.09;100286.81;4471228;32;34689;-78
2023/08/20 09:12:40;;;;;;;7.70;5.97;;;;;;;39.70;30.99;100285.22;4485188;32;34441;-77
2023/08/20 09:15:11;;;;;;;7.60;5.40;;;;;;;39.20;31.45;100283.25;4470411;32;33616;-76
2023/08/20 09:17:42;;;;;;;7.93;5.40;;;;;;;39.12;31.80;100284.63;4471393;32;33908;-77
2023/08/20 09:20:10;;;;;;;6.22;5.62;;;;;;;39.49;31.08;100284.00;4485349;32;33927;-78
2023/08/20 09:22:38;;;;;;;7.03;5.50;;;;;;;39.38;30.30;100290.09;4485072;32;34406;-77
2023/08/20 09:25:06;;;;;;;9.57;5.75;;;;;;;39.49;30.39;100289.41;4485750;32;34224;-77
2023/08/20 09:27:41;;;;;;;8.35;5.97;;;;;;;39.40;30.26;100282.72;4482645;32;33821;-76
2023/08/20 09:30:10;;;;;;;8.50;6.25;;;;;;;39.27;30.97;100282.72;4475165;32;34524;-77
2023/08/20 09:32:37;;;;;;;7.60;6.75;;;;;;;39.44;31.42;100291.56;4475564;32;34441;-77
2023/08/20 09:35:06;;;;;;;8.77;6.70;;;;;;;38.87;32.51;100285.34;4482108;32;33220;-77
2023/08/20 09:37:34;;;;;;;7.97;6.28;;;;;;;39.20;31.70;100286.81;4481143;32;33380;-77
2023/08/20 09:40:02;;;;;;;7.15;5.53;;;;;;;38.77;31.90;100289.62;4483572;32;33510;-77
2023/08/20 09:42:32;;;;;;;6.60;5.45;;;;;;;39.20;31.71;100285.94;4467411;32;33882;-77
2023/08/20 09:45:03;;;;;;;11.05;6.15;;;;;;;39.71;30.13;100284.22;4484773;32;32601;-77
2023/08/20 09:47:35;;;;;;;7.22;5.87;;;;;;;39.93;29.61;100282.78;4484414;32;33031;-76
2023/08/20 09:50:10;;;;;;;7.18;5.55;;;;;;;40.67;28.83;100274.78;4467147;32;33624;-77
2023/08/20 09:52:40;;;;;;;8.40;5.57;;;;;;;40.58;29.39;100278.16;4462082;32;33789;-78
2023/08/20 09:55:09;;;;;;;6.53;5.37;;;;;;;40.03;29.41;100281.16;4463267;32;33580;-77
2023/08/20 09:57:39;;;;;;;6.93;6.12;;;;;;;40.24;29.36;100283.31;4455094;32;793937;-77
2023/08/20 10:00:12;;;;;;;9.23;6.28;;;;;;;40.39;29.07;100279.53;4470540;32;33851;-78
2023/08/20 10:02:43;;;;;;;7.13;6.10;;;;;;;40.68;28.79;100279.22;4474766;32;33900;-77
2023/08/20 10:05:11;;;;;;;;;;;;;;;39.82;30.59;100274.50;4481783;32;33594;-77
2023/08/20 10:07:42;;;;;;;6.68;5.62;;;;;;;40.83;29.30;100283.53;4474638;32;32831;-77
2023/08/20 10:10:13;;;;;;;7.78;6.37;;;;;;;40.80;28.98;100280.19;4473077;32;34035;-77
2023/08/20 10:12:41;;;;;;;9.10;6.12;;;;;;;40.97;29.12;100277.09;4477414;32;34675;-77
2023/08/20 10:15:10;;;;;;;7.50;5.87;;;;;;;40.99;29.42;100263.38;4464855;32;33919;-78
2023/08/20 10:17:41;;;;;;;6.40;5.70;;;;;;;40.76;29.23;100263.28;4480100;32;34662;-78
2023/08/20 10:20:12;;;;;;;7.75;6.00;;;;;;;41.20;28.95;100266.34;4475256;32;34017;-78
2023/08/20 10:22:42;;;;;;;7.65;6.10;;;;;;;40.80;29.62;100261.16;4477325;32;33658;-77
2023/08/20 10:25:21;;;;;;;;;;;;;;;41.46;29.09;100261.63;4473342;32;33619;-77
2023/08/20 10:27:48;;;;;;;;;;;;;;;41.81;28.35;100264.34;4470140;32;36259;-77
2023/08/20 10:30:17;;;;;;;;;;;;;;;41.73;28.74;100260.50;4472989;32;34173;-77
2023/08/20 10:32:46;;;;;;;;;;;;;;;42.04;27.94;100267.97;4480723;32;34626;-77
2023/08/20 10:35:23;;;;;;;;;;;;;;;42.21;27.85;100257.59;4483649;32;34065;-77
2023/08/20 10:38:00;;;;;;;;;;;;;;;41.98;28.17;100263.00;4453847;32;33940;-78
2023/08/20 10:40:46;;;;;;;;;;;;;;;42.00;28.50;100263.75;4474945;32;34221;-78
2023/08/20 10:43:26;;;;;;;;;;;;;;;41.95;28.42;100252.34;4483688;32;34013;-77
2023/08/20 10:46:13;;;;;;;;;;;;;;;42.17;27.94;100251.53;4483441;32;33873;-78
2023/08/20 10:48:41;;;;;;;;;;;;;;;42.25;27.47;100253.63;4483058;32;34457;-78
2023/08/20 10:51:34;;;;;;;;;;;;;;;42.84;26.67;100248.84;4468166;32;33912;-78
2023/08/20 10:54:05;;;;;;;;;;;;;;;42.42;26.86;100244.06;4477066;32;33731;-78
2023/08/20 10:56:44;;;;;;;;;;;;;;;42.23;27.60;100244.72;4472022;32;33140;-78
2023/08/20 10:59:16;;;;;;;;;;;;;;;42.41;27.32;100243.22;4471257;32;33506;-78
2023/08/20 11:01:48;;;;;;;;;;;;;;;42.66;26.01;100246.69;4483629;32;35364;-77
2023/08/20 11:04:16;;;;;;;;;;;;;;;42.41;26.39;100248.66;4482404;32;33717;-77
2023/08/20 11:06:44;;;;;;;9.30;5.65;;;;;;;42.41;26.82;100248.66;4472767;32;33853;-78
2023/08/20 11:09:13;;;;;;;7.40;5.47;;;;;;;42.49;26.85;100239.91;4473784;32;33531;-77
2023/08/20 11:11:41;;;;;;;7.93;5.45;;;;;;;42.06;27.54;100246.09;4478696;32;33309;-78
2023/08/20 11:14:13;;;;;;;;;;;;;;;41.92;26.83;100244.44;4479307;32;33647;-79
2023/08/20 11:16:42;;;;;;;;;;;;;;;42.24;26.60;100247.31;4480314;32;33030;-77
2023/08/20 11:19:10;;;;;;;;;;;;;;;42.39;26.33;100241.63;4468501;32;34016;-78
2023/08/20 11:21:41;;;;;;;6.93;5.15;;;;;;;41.96;27.04;100237.78;4483251;32;33655;-77
2023/08/20 11:24:10;;;;;;;7.47;5.07;;;;;;;41.57;26.86;100237.19;4477012;32;33616;-78
2023/08/20 11:26:42;;;;;;;8.55;6.10;;;;;;;41.89;26.73;100235.66;4479170;32;33496;-77
2023/08/20 11:29:12;;;;;;;7.50;6.20;;;;;;;41.99;27.11;100236.66;4484030;32;34525;-77
2023/08/20 11:31:39;;;;;;;;;;;;;;;41.30;28.09;100228.44;4464295;32;34776;-77
2023/08/20 11:34:07;;;;;;;;;;;;;;;41.62;28.05;100229.56;4483026;32;33750;-77
2023/08/20 11:36:35;;;;;;;;;;;;;;;41.87;28.00;100235.78;4484933;32;33370;-78
2023/08/20 11:39:03;;;;;;;6.80;5.30;;;;;;;41.48;27.44;100227.03;4484125;32;34879;-77
2023/08/20 11:41:31;;;;;;;8.52;5.72;;;;;;;41.64;27.29;100222.12;4474140;32;34515;-77
2023/08/20 11:43:58;;;;;;;8.57;6.10;;;;;;;41.58;27.85;100222.59;4484485;32;33973;-78
2023/08/20 11:46:26;;;;;;;6.80;6.10;;;;;;;41.52;27.57;100223.09;4484349;32;33351;-77
2023/08/20 11:49:08;;;;;;;8.95;5.75;;;;;;;41.57;28.04;100226.31;4459026;32;33394;-77
2023/08/20 11:51:52;;;;;;;7.40;6.43;;;;;;;41.55;27.54;100220.13;4480565;32;34757;-77
2023/08/20 11:54:19;;;;;;;11.00;6.10;;;;;;;41.74;27.24;100215.97;4465087;32;33978;-77
2023/08/20 11:56:49;;;;;;;6.80;5.90;;;;;;;41.89;28.34;100219.34;4484466;32;33262;-78
2023/08/20 11:59:19;;;;;;;8.50;6.07;;;;;;;41.51;27.80;100210.47;4473232;32;33830;-78
2023/08/20 12:01:52;;;;;;;6.85;5.85;;;;;;;41.21;28.15;100214.59;4480663;32;34450;-78
2023/08/20 12:04:23;;;;;;;7.50;5.90;;;;;;;41.83;26.65;100216.09;4483571;32;34667;-77
2023/08/20 12:07:14;;;;;;;7.68;5.47;;;;;;;41.83;27.02;100220.69;4484626;32;33313;-77
2023/08/20 12:09:42;;;;;;;6.30;5.65;;;;;;;41.39;26.97;100212.28;4484528;32;34798;-78
2023/08/20 12:12:10;;;;;;;7.72;5.12;;;;;;;41.20;26.70;100214.72;4483646;32;34007;-78
2023/08/20 12:14:37;;;;;;;6.85;5.70;;;;;;;41.14;26.57;100216.00;4484418;32;33814;-78
2023/08/20 12:17:05;;;;;;;6.22;5.62;;;;;;;41.19;26.89;100211.13;4462827;32;33117;-77
2023/08/20 12:19:32;;;;;;;;;;;;;;;41.37;26.26;100210.69;4484673;32;34008;-77
2023/08/20 12:22:00;;;;;;;;;;;;;;;41.17;27.18;100207.63;4484508;32;34850;-77
2023/08/20 12:24:27;;;;;;;;;;;;;;;41.43;26.97;100208.34;4484250;32;34189;-78